createdAt,value
2023-02-19T00:00:20.890Z,2.50
2023-02-19T00:01:45.692Z,2.10
2023-02-19T00:03:09.112Z,2.03
2023-02-19T00:04:32.564Z,2.47
2023-02-19T00:05:55.040Z,2.30
2023-02-19T00:07:20.254Z,2.22
2023-02-19T00:08:42.645Z,2.38
2023-02-19T00:10:08.060Z,2.42
2023-02-19T00:11:33.150Z,2.40
2023-02-19T00:12:57.391Z,2.38
2023-02-19T00:14:22.143Z,2.20
2023-02-19T00:15:44.588Z,2.40
2023-02-19T00:17:07.999Z,2.35
2023-02-19T00:18:30.527Z,2.28
2023-02-19T00:19:54.019Z,2.38
2023-02-19T00:21:16.768Z,2.40
2023-02-19T00:22:40.164Z,2.55
2023-02-19T00:24:05.812Z,2.30
2023-02-19T00:25:30.559Z,2.60
2023-02-19T00:26:54.083Z,3.05
2023-02-19T00:28:16.472Z,2.80
2023-02-19T00:29:40.014Z,2.45
2023-02-19T00:31:08.093Z,2.58
2023-02-19T00:32:31.697Z,2.75
2023-02-19T00:33:56.307Z,2.63
2023-02-19T00:35:19.844Z,3.30
2023-02-19T00:36:43.988Z,2.90
2023-02-19T00:38:07.385Z,2.88
2023-02-19T00:39:30.833Z,3.00
2023-02-19T00:40:55.669Z,3.00
2023-02-19T00:42:18.139Z,2.83
2023-02-19T00:43:41.515Z,2.83
2023-02-19T00:45:05.395Z,2.85
2023-02-19T00:46:29.738Z,3.35
2023-02-19T00:47:53.508Z,3.08
2023-02-19T00:49:19.203Z,2.88
2023-02-19T00:50:42.608Z,3.30
2023-02-19T00:52:06.224Z,3.08
2023-02-19T00:53:28.648Z,3.22
2023-02-19T00:54:52.075Z,2.85
2023-02-19T00:56:17.523Z,3.00
2023-02-19T00:57:40.923Z,3.40
2023-02-19T00:59:04.107Z,2.83
2023-02-19T01:00:27.486Z,2.80
2023-02-19T01:01:51.055Z,3.13
2023-02-19T01:03:15.245Z,2.75
2023-02-19T01:04:38.808Z,3.30
2023-02-19T01:06:01.292Z,3.42
2023-02-19T01:07:25.109Z,3.13
2023-02-19T01:08:50.985Z,2.90
2023-02-19T01:10:14.436Z,3.25
2023-02-19T01:11:39.228Z,3.53
2023-02-19T01:13:02.640Z,3.05
2023-02-19T01:14:26.850Z,3.75
2023-02-19T01:15:49.341Z,2.95
2023-02-19T01:17:16.862Z,3.08
2023-02-19T01:19:09.118Z,3.53
2023-02-19T01:20:32.296Z,3.08
2023-02-19T01:21:55.739Z,2.70
2023-02-19T01:23:18.170Z,3.30
2023-02-19T01:24:41.742Z,3.08
2023-02-19T01:26:07.829Z,2.75
2023-02-19T01:27:32.601Z,3.10
2023-02-19T01:28:55.044Z,3.20
2023-02-19T01:30:18.640Z,3.45
2023-02-19T01:31:43.023Z,3.10
2023-02-19T01:33:06.732Z,3.60
2023-02-19T01:34:33.247Z,3.10
2023-02-19T01:35:56.634Z,3.20
2023-02-19T01:37:21.008Z,3.10
2023-02-19T01:38:43.900Z,3.30
2023-02-19T01:40:08.005Z,2.72
2023-02-19T01:41:31.715Z,3.40
2023-02-19T01:42:55.674Z,3.13
2023-02-19T01:44:56.412Z,3.15
2023-02-19T01:51:46.032Z,2.78
2023-02-19T01:53:09.816Z,3.08
2023-02-19T01:54:35.582Z,2.72
2023-02-19T01:56:01.038Z,3.08
2023-02-19T01:57:28.342Z,2.95
2023-02-19T01:58:53.173Z,3.38
2023-02-19T02:00:17.153Z,2.38
2023-02-19T02:01:41.057Z,3.20
2023-02-19T02:03:03.998Z,2.55
2023-02-19T02:04:27.559Z,2.80
2023-02-19T02:05:57.100Z,2.60
2023-02-19T02:07:38.036Z,2.75
2023-02-19T02:09:23.263Z,2.50
2023-02-19T02:10:46.764Z,2.42
2023-02-19T02:12:10.289Z,2.28
2023-02-19T02:13:35.073Z,2.42
2023-02-19T02:14:59.798Z,2.45
2023-02-19T02:16:25.668Z,2.17
2023-02-19T02:17:53.819Z,2.20
2023-02-19T02:19:38.526Z,1.98
2023-02-19T02:21:41.614Z,2.60
2023-02-19T02:23:09.960Z,2.15
2023-02-19T02:25:03.545Z,2.10
2023-02-19T02:26:46.128Z,2.25
2023-02-19T02:28:22.995Z,1.95
2023-02-19T02:30:11.427Z,2.20
2023-02-19T02:31:38.498Z,1.90
2023-02-19T02:33:08.191Z,1.70
2023-02-19T02:34:35.096Z,1.90
2023-02-19T02:36:00.373Z,1.63
2023-02-19T02:37:24.499Z,1.90
2023-02-19T02:38:50.100Z,1.95
2023-02-19T02:40:13.724Z,1.95
2023-02-19T02:41:37.187Z,2.30
2023-02-19T02:43:00.814Z,1.90
2023-02-19T02:44:24.337Z,2.00
2023-02-19T02:45:48.406Z,1.92
2023-02-19T02:47:32.275Z,1.80
2023-02-19T02:48:58.667Z,1.80
2023-02-19T02:50:24.369Z,1.80
2023-02-19T02:51:50.235Z,2.25
2023-02-19T02:53:35.031Z,2.05
2023-02-19T02:55:03.619Z,1.52
2023-02-19T02:56:27.393Z,1.90
2023-02-19T02:57:50.086Z,1.75
2023-02-19T02:59:15.095Z,1.70
2023-02-19T03:00:52.902Z,1.80
2023-02-19T03:02:19.890Z,2.15
2023-02-19T03:03:43.684Z,1.92
2023-02-19T03:05:32.346Z,1.90
2023-02-19T03:06:56.520Z,1.77
2023-02-19T03:08:23.671Z,1.83
2023-02-19T03:09:49.617Z,1.85
2023-02-19T03:11:31.298Z,1.70
2023-02-19T03:13:13.190Z,1.88
2023-02-19T03:15:03.184Z,1.60
2023-02-19T03:16:46.372Z,1.60
2023-02-19T03:18:28.694Z,1.75
2023-02-19T03:19:55.359Z,1.88
2023-02-19T03:21:20.914Z,1.45
2023-02-19T03:22:45.474Z,1.77
2023-02-19T03:24:28.358Z,1.85
2023-02-19T03:26:03.370Z,1.83
2023-02-19T03:27:28.733Z,2.25
2023-02-19T03:29:10.553Z,2.17
2023-02-19T03:30:36.674Z,2.03
2023-02-19T03:32:02.235Z,2.28
2023-02-19T03:33:28.549Z,1.42
2023-02-19T03:34:54.552Z,2.20
2023-02-19T03:36:18.894Z,1.85
2023-02-19T03:37:45.992Z,2.42
2023-02-19T03:39:09.313Z,2.97
2023-02-19T03:40:35.537Z,2.45
2023-02-19T03:42:02.657Z,2.13
2023-02-19T03:43:28.657Z,2.28
2023-02-19T03:45:10.014Z,1.90
2023-02-19T03:46:37.882Z,2.10
2023-02-19T03:48:07.913Z,2.28
2023-02-19T03:49:40.570Z,1.75
2023-02-19T03:51:16.161Z,1.40
2023-02-19T03:52:41.759Z,1.80
2023-02-19T03:54:12.833Z,1.35
2023-02-19T03:55:47.195Z,1.48
2023-02-19T03:57:17.659Z,1.75
2023-02-19T03:58:49.165Z,1.27
2023-02-19T04:00:14.969Z,1.50
2023-02-19T04:01:42.610Z,0.77
2023-02-19T04:03:12.732Z,1.33
2023-02-19T04:04:38.505Z,1.50
2023-02-19T04:06:04.990Z,1.23
2023-02-19T04:07:29.084Z,1.30
2023-02-19T04:08:55.281Z,1.35
2023-02-19T04:10:19.004Z,1.42
2023-02-19T04:11:42.432Z,1.42
2023-02-19T04:13:07.148Z,1.60
2023-02-19T04:14:33.968Z,1.63
2023-02-19T04:15:59.236Z,1.60
2023-02-19T04:17:26.011Z,1.52
2023-02-19T04:18:51.684Z,1.23
2023-02-19T04:20:20.444Z,1.20
2023-02-19T04:21:44.008Z,1.77
2023-02-19T04:23:06.670Z,1.45
2023-02-19T04:24:32.949Z,1.65
2023-02-19T04:25:58.886Z,1.83
2023-02-19T04:27:22.266Z,1.52
2023-02-19T04:28:44.775Z,1.52
2023-02-19T04:30:11.578Z,1.80
2023-02-19T04:31:37.074Z,2.03
2023-02-19T04:33:00.493Z,1.50
2023-02-19T04:34:22.888Z,1.27
2023-02-19T04:35:47.631Z,1.52
2023-02-19T04:37:11.166Z,1.17
2023-02-19T04:38:34.542Z,1.40
2023-02-19T04:39:57.912Z,1.35
2023-02-19T04:41:20.268Z,1.67
2023-02-19T04:42:43.748Z,1.27
2023-02-19T04:44:06.302Z,1.27
2023-02-19T04:45:29.844Z,1.50
2023-02-19T04:46:53.220Z,1.45
2023-02-19T04:48:16.144Z,1.35
2023-02-19T04:49:39.512Z,1.05
2023-02-19T04:51:08.121Z,1.25
2023-02-19T04:52:30.577Z,2.33
2023-02-19T04:53:56.839Z,1.48
2023-02-19T04:55:19.238Z,1.42
2023-02-19T04:56:42.585Z,1.58
2023-02-19T04:58:05.049Z,1.25
2023-02-19T04:59:28.590Z,1.33
2023-02-19T05:00:53.072Z,1.25
2023-02-19T05:02:16.472Z,1.42
2023-02-19T05:03:39.962Z,1.10
2023-02-19T05:05:02.529Z,1.20
2023-02-19T05:06:27.440Z,1.50
2023-02-19T05:07:49.848Z,1.40
2023-02-19T05:09:13.181Z,1.85
2023-02-19T05:10:35.615Z,1.73
2023-02-19T05:11:58.972Z,1.48
2023-02-19T05:13:21.373Z,1.70
2023-02-19T05:14:44.738Z,1.75
2023-02-19T05:16:13.192Z,1.52
2023-02-19T05:17:35.712Z,1.55
2023-02-19T05:18:59.086Z,1.40
2023-02-19T05:20:22.963Z,1.73
2023-02-19T05:21:50.160Z,1.65
2023-02-19T05:23:13.502Z,1.85
2023-02-19T05:24:35.876Z,1.77
2023-02-19T05:25:59.252Z,1.33
2023-02-19T05:27:25.039Z,1.40
2023-02-19T05:28:49.425Z,1.95
2023-02-19T05:30:12.571Z,1.80
2023-02-19T05:31:36.143Z,1.67
2023-02-19T05:32:59.622Z,2.20
2023-02-19T05:34:23.021Z,1.48
2023-02-19T05:35:48.199Z,1.55
2023-02-19T05:37:12.969Z,2.10
2023-02-19T05:38:35.959Z,1.92
2023-02-19T05:39:59.346Z,1.90
2023-02-19T05:41:25.303Z,1.38
2023-02-19T05:42:48.667Z,1.33
2023-02-19T05:44:11.391Z,1.85
2023-02-19T05:45:35.114Z,1.52
2023-02-19T05:46:58.509Z,1.50
2023-02-19T05:48:21.032Z,1.45
2023-02-19T05:49:44.623Z,1.83
2023-02-19T05:51:10.386Z,1.63
2023-02-19T05:52:35.291Z,1.98
2023-02-19T05:53:58.813Z,1.35
2023-02-19T05:55:21.207Z,1.60
2023-02-19T05:56:44.707Z,1.92
2023-02-19T05:58:08.206Z,1.42
2023-02-19T05:59:31.650Z,1.35
2023-02-19T06:00:55.730Z,1.52
2023-02-19T06:02:19.078Z,1.42
2023-02-19T06:03:41.495Z,1.73
2023-02-19T06:05:05.714Z,1.58
2023-02-19T06:06:29.579Z,2.17
2023-02-19T06:07:54.330Z,1.67
2023-02-19T06:09:17.020Z,1.55
2023-02-19T06:10:41.271Z,1.50
2023-02-19T06:12:04.825Z,1.42
2023-02-19T06:13:27.204Z,1.27
2023-02-19T06:14:51.021Z,1.60
2023-02-19T06:16:13.530Z,1.40
2023-02-19T06:17:36.942Z,1.63
2023-02-19T06:19:00.297Z,1.40
2023-02-19T06:20:25.435Z,1.50
2023-02-19T06:21:51.727Z,1.63
2023-02-19T06:23:15.714Z,1.60
2023-02-19T06:24:39.479Z,1.25
2023-02-19T06:26:10.452Z,1.08
2023-02-19T06:27:33.833Z,1.27
2023-02-19T06:28:58.021Z,1.30
2023-02-19T06:30:20.700Z,1.10
2023-02-19T06:31:44.770Z,1.25
2023-02-19T06:33:08.249Z,0.65
2023-02-19T06:34:34.070Z,1.15
2023-02-19T06:35:59.458Z,1.20
2023-02-19T06:37:22.810Z,1.10
2023-02-19T06:38:47.550Z,1.17
2023-02-19T06:40:11.436Z,1.15
2023-02-19T06:41:34.097Z,1.25
2023-02-19T06:42:57.459Z,1.00
2023-02-19T06:44:21.269Z,1.40
2023-02-19T06:45:43.760Z,1.42
2023-02-19T06:47:07.128Z,1.10
2023-02-19T06:48:30.518Z,1.42
2023-02-19T06:49:53.874Z,1.17
2023-02-19T06:51:19.647Z,1.00
2023-02-19T06:52:42.036Z,1.27
2023-02-19T06:54:06.853Z,0.85
2023-02-19T06:55:29.270Z,1.75
2023-02-19T06:56:52.661Z,1.35
2023-02-19T06:58:16.047Z,1.75
2023-02-19T06:59:39.394Z,1.80
2023-02-19T07:01:02.063Z,1.52
2023-02-19T07:02:26.277Z,1.40
2023-02-19T07:03:49.808Z,1.13
2023-02-19T07:05:13.180Z,1.70
2023-02-19T07:06:37.077Z,1.58
2023-02-19T07:08:00.508Z,1.35
2023-02-19T07:09:25.611Z,1.27
2023-02-19T07:10:56.618Z,1.77
2023-02-19T07:12:20.029Z,1.83
2023-02-19T07:13:42.422Z,1.38
2023-02-19T07:15:06.047Z,1.58
2023-02-19T07:16:28.704Z,1.67
2023-02-19T07:17:52.096Z,1.48
2023-02-19T07:19:16.487Z,1.65
2023-02-19T07:20:40.162Z,1.30
2023-02-19T07:22:03.507Z,1.40
2023-02-19T07:23:26.845Z,1.27
2023-02-19T07:24:53.848Z,1.48
2023-02-19T07:26:19.220Z,1.42
2023-02-19T07:27:42.589Z,1.30
2023-02-19T07:29:06.442Z,1.55
2023-02-19T07:30:29.715Z,1.40
2023-02-19T07:31:53.248Z,1.73
2023-02-19T07:33:16.716Z,1.70
2023-02-19T07:34:40.129Z,1.45
2023-02-19T07:36:03.560Z,1.88
2023-02-19T07:37:26.934Z,1.33
2023-02-19T07:38:56.123Z,1.50
2023-02-19T07:40:20.913Z,1.63
2023-02-19T07:41:46.680Z,2.22
2023-02-19T07:43:09.095Z,1.60
2023-02-19T07:44:32.458Z,1.88
2023-02-19T07:45:56.098Z,1.95
2023-02-19T07:47:19.601Z,1.60
2023-02-19T07:48:43.252Z,1.58
2023-02-19T07:50:07.039Z,1.38
2023-02-19T07:51:30.439Z,1.50
2023-02-19T07:52:53.022Z,1.70
2023-02-19T07:54:16.863Z,1.33
2023-02-19T07:55:40.586Z,1.50
2023-02-19T07:57:03.939Z,1.60
2023-02-19T07:58:26.382Z,1.33
2023-02-19T07:59:49.714Z,1.40
2023-02-19T08:01:15.732Z,1.25
2023-02-19T08:02:56.547Z,1.58
2023-02-19T08:04:18.988Z,2.10
2023-02-19T08:05:43.777Z,3.33
2023-02-19T08:07:07.165Z,1.70
2023-02-19T08:08:30.751Z,3.47
2023-02-19T08:10:13.256Z,2.03
2023-02-19T08:11:55.240Z,1.30
2023-02-19T08:13:23.428Z,1.95
2023-02-19T08:14:46.808Z,2.03
2023-02-19T08:16:21.847Z,1.45
2023-02-19T08:17:50.220Z,1.50
2023-02-19T08:19:13.607Z,2.30
2023-02-19T08:20:36.185Z,1.33
2023-02-19T08:21:59.598Z,1.20
2023-02-19T08:23:22.352Z,1.58
2023-02-19T08:24:45.738Z,1.52
2023-02-19T08:26:09.877Z,1.35
2023-02-19T08:27:34.833Z,1.80
2023-02-19T08:28:58.971Z,1.70
2023-02-19T08:30:22.450Z,1.88
2023-02-19T08:31:46.003Z,1.30
2023-02-19T08:33:09.941Z,1.52
2023-02-19T08:34:33.301Z,1.50
2023-02-19T08:35:56.734Z,2.20
2023-02-19T08:37:20.091Z,2.13
2023-02-19T08:38:43.470Z,1.70
2023-02-19T08:40:07.429Z,1.20
2023-02-19T08:41:30.807Z,1.83
2023-02-19T08:42:54.681Z,1.20
2023-02-19T08:44:18.144Z,0.90
2023-02-19T08:45:41.664Z,1.38
2023-02-19T08:47:05.978Z,1.15
2023-02-19T08:48:29.636Z,1.00
2023-02-19T08:49:55.427Z,1.23
2023-02-19T08:51:18.879Z,1.40
2023-02-19T08:52:42.224Z,1.17
2023-02-19T08:54:05.999Z,1.10
2023-02-19T08:55:30.874Z,1.58
2023-02-19T08:56:54.654Z,1.27
2023-02-19T08:58:19.141Z,1.70
2023-02-19T08:59:42.510Z,1.30
2023-02-19T09:01:11.293Z,1.52
2023-02-19T09:02:34.964Z,1.40
2023-02-19T09:03:58.411Z,1.00
2023-02-19T09:05:21.972Z,0.82
2023-02-19T09:06:45.352Z,1.02
2023-02-19T09:08:08.865Z,1.40
2023-02-19T09:09:32.222Z,1.23
2023-02-19T09:11:02.269Z,0.95
2023-02-19T09:12:25.779Z,1.27
2023-02-19T09:13:50.532Z,1.30
2023-02-19T09:15:12.950Z,1.45
2023-02-19T09:16:36.669Z,1.25
2023-02-19T09:18:00.076Z,1.52
2023-02-19T09:19:23.477Z,1.50
2023-02-19T09:20:46.859Z,1.27
2023-02-19T09:22:10.346Z,1.42
2023-02-19T09:23:34.699Z,1.17
2023-02-19T09:24:57.137Z,1.58
2023-02-19T09:26:20.562Z,1.35
2023-02-19T09:27:43.969Z,1.10
2023-02-19T09:29:08.780Z,0.85
2023-02-19T09:30:32.186Z,1.13
2023-02-19T09:31:58.353Z,1.35
2023-02-19T09:33:21.825Z,1.60
2023-02-19T09:34:46.025Z,1.52
2023-02-19T09:36:10.010Z,0.90
2023-02-19T09:37:34.229Z,1.50
2023-02-19T09:39:00.326Z,1.00
2023-02-19T09:40:23.702Z,1.50
2023-02-19T09:41:49.021Z,1.20
2023-02-19T09:43:16.515Z,1.50
2023-02-19T09:44:43.731Z,1.20
2023-02-19T09:46:13.575Z,1.30
2023-02-19T09:47:37.140Z,1.40
2023-02-19T09:49:05.221Z,1.02
2023-02-19T09:50:34.061Z,1.33
2023-02-19T09:51:59.860Z,1.38
2023-02-19T09:53:25.854Z,1.13
2023-02-19T09:54:49.525Z,1.35
2023-02-19T09:56:12.894Z,1.50
2023-02-19T09:57:38.495Z,1.30
2023-02-19T09:59:01.968Z,1.38
2023-02-19T10:00:28.460Z,1.13
2023-02-19T10:01:56.955Z,1.95
2023-02-19T10:03:26.346Z,1.25
2023-02-19T10:04:52.075Z,0.98
2023-02-19T10:06:20.418Z,1.25
2023-02-19T10:07:47.177Z,1.10
2023-02-19T10:09:21.186Z,1.38
2023-02-19T10:10:45.786Z,1.00
2023-02-19T10:12:16.917Z,1.20
2023-02-19T10:13:44.036Z,1.17
2023-02-19T10:15:12.681Z,1.05
2023-02-19T10:16:41.714Z,1.08
2023-02-19T10:18:08.851Z,1.10
2023-02-19T10:19:34.626Z,1.02
2023-02-19T10:20:58.822Z,1.10
2023-02-19T10:22:22.524Z,1.08
2023-02-19T10:23:46.353Z,0.90
2023-02-19T10:25:13.753Z,1.40
2023-02-19T10:26:37.205Z,0.93
2023-02-19T10:28:00.892Z,1.10
2023-02-19T10:29:24.916Z,0.88
2023-02-19T10:30:53.227Z,1.35
2023-02-19T10:32:24.325Z,1.25
2023-02-19T10:33:52.391Z,1.08
2023-02-19T10:35:17.041Z,1.10
2023-02-19T10:36:41.976Z,0.90
2023-02-19T10:38:08.308Z,1.25
2023-02-19T10:39:43.480Z,1.42
2023-02-19T10:41:08.786Z,1.30
2023-02-19T10:42:32.327Z,0.98
2023-02-19T10:44:06.674Z,2.03
2023-02-19T10:45:34.847Z,3.72
2023-02-19T10:46:59.258Z,1.45
2023-02-19T10:48:26.451Z,2.80
2023-02-19T10:49:50.987Z,1.38
2023-02-19T10:51:20.843Z,1.85
2023-02-19T10:52:44.257Z,2.20
2023-02-19T10:54:10.789Z,1.30
2023-02-19T10:55:37.828Z,1.92
2023-02-19T10:57:25.612Z,1.23
2023-02-19T10:58:48.961Z,1.25
2023-02-19T11:00:24.155Z,1.77
2023-02-19T11:02:02.411Z,1.52
2023-02-19T11:03:27.189Z,1.63
2023-02-19T11:05:08.071Z,2.40
2023-02-19T11:06:32.940Z,1.80
2023-02-19T11:08:01.297Z,1.00
2023-02-19T11:09:28.287Z,0.82
2023-02-19T11:10:51.871Z,0.75
2023-02-19T11:12:16.039Z,0.80
2023-02-19T11:13:40.540Z,0.98
2023-02-19T11:15:19.988Z,1.33
2023-02-19T11:16:45.606Z,0.70
2023-02-19T11:18:19.293Z,0.80
2023-02-19T11:19:48.726Z,1.77
2023-02-19T11:21:28.322Z,1.60
2023-02-19T11:22:51.844Z,0.90
2023-02-19T11:24:24.654Z,1.00
2023-02-19T11:25:49.110Z,1.30
2023-02-19T11:27:20.054Z,1.33
2023-02-19T11:28:43.677Z,1.15
2023-02-19T11:30:35.903Z,1.00
2023-02-19T11:32:13.690Z,1.10
2023-02-19T11:33:37.201Z,1.38
2023-02-19T11:35:25.079Z,0.70
2023-02-19T11:36:49.916Z,0.85
2023-02-19T11:38:16.015Z,0.93
2023-02-19T11:39:39.869Z,1.00
2023-02-19T11:41:11.802Z,0.88
2023-02-19T11:42:43.779Z,3.78
2023-02-19T11:44:18.326Z,1.10
2023-02-19T11:45:47.211Z,0.90
2023-02-19T11:47:40.885Z,0.70
2023-02-19T11:49:17.521Z,1.00
2023-02-19T11:50:51.740Z,1.02
2023-02-19T11:52:23.800Z,1.38
2023-02-19T11:53:50.020Z,0.85
2023-02-19T11:55:19.717Z,1.10
2023-02-19T11:56:44.619Z,1.13
2023-02-19T11:58:54.984Z,1.15
2023-02-19T12:00:28.420Z,1.20
2023-02-19T12:02:04.552Z,2.30
2023-02-19T12:03:50.250Z,1.40
2023-02-19T12:05:26.318Z,1.05
2023-02-19T12:06:56.561Z,1.08
2023-02-19T12:08:42.509Z,1.08
2023-02-19T12:10:13.074Z,1.23
2023-02-19T12:12:02.166Z,0.90
2023-02-19T12:13:30.982Z,1.40
2023-02-19T12:15:08.357Z,0.68
2023-02-19T12:16:35.235Z,0.73
2023-02-19T12:18:26.485Z,1.02
2023-02-19T12:19:58.586Z,1.23
2023-02-19T12:21:31.253Z,1.20
2023-02-19T12:23:21.585Z,0.90
2023-02-19T12:25:16.877Z,0.77
2023-02-19T12:26:44.262Z,1.40
2023-02-19T12:28:26.495Z,1.25
2023-02-19T12:30:04.578Z,1.20
2023-02-19T12:31:56.549Z,0.75
2023-02-19T12:33:39.712Z,1.08
2023-02-19T12:35:42.894Z,2.75
2023-02-19T12:39:17.269Z,0.95
2023-02-19T12:40:51.537Z,2.22
2023-02-19T12:42:41.328Z,1.45
2023-02-19T12:44:09.681Z,1.80
2023-02-19T12:45:36.088Z,1.05
2023-02-19T12:47:02.199Z,1.75
2023-02-19T12:48:32.691Z,0.88
2023-02-19T12:50:03.295Z,1.90
2023-02-19T12:51:28.319Z,1.75
2023-02-19T12:52:55.046Z,1.75
2023-02-19T12:54:24.770Z,2.53
2023-02-19T12:55:49.318Z,1.50
2023-02-19T12:57:14.679Z,2.15
2023-02-19T12:58:42.468Z,1.40
2023-02-19T13:00:13.308Z,1.50
2023-02-19T13:01:41.708Z,1.42
2023-02-19T13:03:10.725Z,1.33
2023-02-19T13:04:42.047Z,1.25
2023-02-19T13:06:10.482Z,0.85
2023-02-19T13:07:38.361Z,1.20
2023-02-19T13:09:07.475Z,1.50
2023-02-19T13:10:35.241Z,1.08
2023-02-19T13:12:02.742Z,1.08
2023-02-19T13:13:30.189Z,1.33
2023-02-19T13:14:57.718Z,1.25
2023-02-19T13:16:23.404Z,1.45
2023-02-19T13:17:50.250Z,1.45
2023-02-19T13:19:15.135Z,0.98
2023-02-19T13:20:40.298Z,1.52
2023-02-19T13:22:27.540Z,1.40
2023-02-19T13:23:59.149Z,1.73
2023-02-19T13:25:23.307Z,1.38
2023-02-19T13:26:57.368Z,1.40
2023-02-19T13:28:41.527Z,1.02
2023-02-19T13:30:23.347Z,1.67
2023-02-19T13:32:15.158Z,1.08
2023-02-19T13:33:45.980Z,0.70
2023-02-19T13:35:29.107Z,0.90
2023-02-19T13:36:52.555Z,0.80
2023-02-19T13:38:16.700Z,0.80
2023-02-19T13:39:48.660Z,1.02
2023-02-19T13:41:28.116Z,0.63
2023-02-19T13:42:55.570Z,0.73
2023-02-19T13:44:21.130Z,1.08
2023-02-19T13:45:46.016Z,2.28
2023-02-19T13:47:59.394Z,1.20
2023-02-19T13:49:38.484Z,1.95
2023-02-19T13:51:39.689Z,0.70
2023-02-19T13:53:06.279Z,0.88
2023-02-19T13:54:31.251Z,0.90
2023-02-19T13:55:54.979Z,1.15
2023-02-19T13:57:29.356Z,0.90
2023-02-19T13:58:59.567Z,0.88
2023-02-19T14:00:49.383Z,1.08
2023-02-19T14:02:36.693Z,1.48
2023-02-19T14:04:08.824Z,0.90
2023-02-19T14:05:59.843Z,1.63
2023-02-19T14:07:44.793Z,1.10
2023-02-19T14:09:47.551Z,1.10
2023-02-19T14:11:14.202Z,1.05
2023-02-19T14:12:37.386Z,0.95
2023-02-19T14:14:06.590Z,0.85
2023-02-19T14:15:44.059Z,0.75
2023-02-19T14:17:28.794Z,1.05
2023-02-19T14:18:52.710Z,0.38
2023-02-19T14:20:42.959Z,0.88
2023-02-19T14:22:39.798Z,0.90
2023-02-19T14:24:03.601Z,0.65
2023-02-19T14:25:38.476Z,0.70
2023-02-19T14:27:01.940Z,0.60
2023-02-19T14:28:30.737Z,1.02
2023-02-19T14:29:54.580Z,0.52
2023-02-19T14:31:23.660Z,1.13
2023-02-19T14:32:51.046Z,0.85
2023-02-19T14:34:22.355Z,0.88
2023-02-19T14:35:47.994Z,1.27
2023-02-19T14:37:16.638Z,1.73
2023-02-19T14:38:42.944Z,3.72
2023-02-19T14:40:07.232Z,1.40
2023-02-19T14:41:33.616Z,1.75
2023-02-19T14:42:59.787Z,1.38
2023-02-19T14:44:26.270Z,1.48
2023-02-19T14:45:50.884Z,1.00
2023-02-19T14:47:17.015Z,1.00
2023-02-19T14:48:44.380Z,0.90
2023-02-19T14:50:10.682Z,0.60
2023-02-19T14:51:39.450Z,1.20
2023-02-19T14:53:05.366Z,0.68
2023-02-19T14:54:39.726Z,0.63
2023-02-19T14:56:04.236Z,1.48
2023-02-19T14:57:30.902Z,0.50
2023-02-19T14:59:22.936Z,0.90
2023-02-19T15:00:46.338Z,1.90
2023-02-19T15:02:17.334Z,1.10
2023-02-19T15:03:43.589Z,2.08
2023-02-19T15:05:16.784Z,3.00
2023-02-19T15:06:41.679Z,2.33
2023-02-19T15:08:08.812Z,1.23
2023-02-19T15:09:34.219Z,1.45
2023-02-19T15:10:57.782Z,1.27
2023-02-19T15:12:24.226Z,1.40
2023-02-19T15:13:50.109Z,1.13
2023-02-19T15:15:19.898Z,1.10
2023-02-19T15:16:43.398Z,1.23
2023-02-19T15:18:07.119Z,3.30
2023-02-19T15:19:33.010Z,0.82
2023-02-19T15:21:02.553Z,0.50
2023-02-19T15:22:29.581Z,0.68
2023-02-19T15:23:55.464Z,1.05
2023-02-19T15:25:20.636Z,1.25
2023-02-19T15:26:45.845Z,1.38
2023-02-19T15:28:27.163Z,1.30
2023-02-19T15:29:53.586Z,1.25
2023-02-19T15:31:17.649Z,0.73
2023-02-19T15:32:41.312Z,1.38
2023-02-19T15:34:04.737Z,1.02
2023-02-19T15:35:29.306Z,1.40
2023-02-19T15:36:58.562Z,1.35
2023-02-19T15:38:24.028Z,1.27
2023-02-19T15:39:48.808Z,0.85
2023-02-19T15:41:19.980Z,1.10
2023-02-19T15:42:46.749Z,1.38
2023-02-19T15:44:31.722Z,0.90
2023-02-19T15:45:57.230Z,1.35
2023-02-19T15:47:24.399Z,0.90
2023-02-19T15:48:53.472Z,1.10
2023-02-19T15:50:18.732Z,1.05
2023-02-19T15:51:44.537Z,1.15
2023-02-19T15:53:10.856Z,1.13
2023-02-19T15:54:39.708Z,1.88
2023-02-19T15:56:07.106Z,1.08
2023-02-19T15:57:36.224Z,1.02
2023-02-19T15:59:01.309Z,1.10
2023-02-19T16:00:33.742Z,1.08
2023-02-19T16:01:58.415Z,1.02
2023-02-19T16:03:23.367Z,0.93
2023-02-19T16:04:47.390Z,0.95
2023-02-19T16:06:14.778Z,1.05
2023-02-19T16:07:38.210Z,0.93
2023-02-19T16:09:03.025Z,1.95
2023-02-19T16:10:30.732Z,1.27
2023-02-19T16:11:55.496Z,0.50
2023-02-19T16:13:27.649Z,0.70
2023-02-19T16:14:51.137Z,1.25
2023-02-19T16:16:17.241Z,1.27
2023-02-19T16:17:43.966Z,1.30
2023-02-19T16:19:07.389Z,0.90
2023-02-19T16:20:33.126Z,1.00
2023-02-19T16:21:56.810Z,0.73
2023-02-19T16:23:24.114Z,0.82
2023-02-19T16:24:50.203Z,0.90
2023-02-19T16:26:15.255Z,0.80
2023-02-19T16:27:40.050Z,0.80
2023-02-19T16:29:03.455Z,0.70
2023-02-19T16:30:34.172Z,1.10
2023-02-19T16:31:59.226Z,1.13
2023-02-19T16:33:37.122Z,0.93
2023-02-19T16:35:00.560Z,1.33
2023-02-19T16:36:28.835Z,0.85
2023-02-19T16:37:59.249Z,1.10
2023-02-19T16:39:26.378Z,1.35
2023-02-19T16:41:12.361Z,1.38
2023-02-19T16:42:38.192Z,1.08
2023-02-19T16:44:06.466Z,0.73
2023-02-19T16:45:29.912Z,0.88
2023-02-19T16:46:54.549Z,1.10
2023-02-19T16:48:18.247Z,0.70
2023-02-19T16:49:42.478Z,1.23
2023-02-19T16:51:07.871Z,1.10
2023-02-19T16:52:31.853Z,1.00
2023-02-19T16:53:58.474Z,1.27
2023-02-19T16:55:22.064Z,1.42
2023-02-19T16:56:45.469Z,1.00
2023-02-19T16:58:10.276Z,1.58
2023-02-19T16:59:33.687Z,1.25
2023-02-19T17:00:57.327Z,1.02
2023-02-19T17:02:22.727Z,1.45
2023-02-19T17:03:46.996Z,1.55
2023-02-19T17:05:10.481Z,1.80
2023-02-19T17:06:34.764Z,1.20
2023-02-19T17:07:58.396Z,1.42
2023-02-19T17:09:21.793Z,1.27
2023-02-19T17:10:45.208Z,1.00
2023-02-19T17:12:12.349Z,1.50
2023-02-19T17:13:37.100Z,1.42
2023-02-19T17:15:00.515Z,1.63
2023-02-19T17:16:25.323Z,1.23
2023-02-19T17:17:49.104Z,1.85
2023-02-19T17:19:14.717Z,1.60
2023-02-19T17:20:38.110Z,1.35
2023-02-19T17:22:03.098Z,1.90
2023-02-19T17:23:26.496Z,1.98
2023-02-19T17:24:49.901Z,1.60
2023-02-19T17:26:16.034Z,2.40
2023-02-19T17:27:39.467Z,1.90
2023-02-19T17:29:07.290Z,1.63
2023-02-19T17:30:32.544Z,1.88
2023-02-19T17:31:56.004Z,2.00
2023-02-19T17:33:19.499Z,2.10
2023-02-19T17:34:43.062Z,2.47
2023-02-19T17:36:07.370Z,2.22
2023-02-19T17:37:29.839Z,2.15
2023-02-19T17:38:53.289Z,1.88
2023-02-19T17:40:32.256Z,1.80
2023-02-19T17:41:56.697Z,1.90
2023-02-19T17:43:20.056Z,2.50
2023-02-19T17:44:46.819Z,2.10
2023-02-19T17:46:15.992Z,2.55
2023-02-19T17:47:39.543Z,1.75
2023-02-19T17:49:02.904Z,1.80
2023-02-19T17:50:29.187Z,2.03
2023-02-19T17:51:52.571Z,1.85
2023-02-19T17:53:15.998Z,1.80
2023-02-19T17:54:39.338Z,1.50
2023-02-19T17:56:06.877Z,1.77
2023-02-19T17:57:33.429Z,1.60
2023-02-19T17:58:58.603Z,1.58
2023-02-19T18:00:25.265Z,1.55
2023-02-19T18:01:48.691Z,2.20
2023-02-19T18:03:12.864Z,1.77
2023-02-19T18:04:37.238Z,1.60
2023-02-19T18:06:01.491Z,1.55
2023-02-19T18:07:24.918Z,1.50
2023-02-19T18:08:49.755Z,1.10
2023-02-19T18:10:14.254Z,1.73
2023-02-19T18:11:37.714Z,1.80
2023-02-19T18:13:01.137Z,1.65
2023-02-19T18:14:24.585Z,2.00
2023-02-19T18:15:55.203Z,1.52
2023-02-19T18:17:18.584Z,1.77
2023-02-19T18:18:42.310Z,1.77
2023-02-19T18:20:06.437Z,2.05
2023-02-19T18:21:29.806Z,2.78
2023-02-19T18:22:53.748Z,1.92
2023-02-19T18:24:17.321Z,2.28
2023-02-19T18:25:40.723Z,2.08
2023-02-19T18:27:04.232Z,1.80
2023-02-19T18:28:27.601Z,1.67
2023-02-19T18:29:54.415Z,1.67
2023-02-19T18:31:19.216Z,2.03
2023-02-19T18:34:20.278Z,1.48
2023-02-19T18:35:44.518Z,1.77
2023-02-19T18:37:07.941Z,1.90
2023-02-19T18:38:31.341Z,2.30
2023-02-19T18:39:55.301Z,1.77
2023-02-19T18:41:21.009Z,1.80
2023-02-19T18:42:44.753Z,2.22
2023-02-19T18:44:08.407Z,1.70
2023-02-19T18:45:35.222Z,1.92
2023-02-19T18:46:59.996Z,2.00
2023-02-19T18:48:23.686Z,2.83
2023-02-19T18:49:47.759Z,2.33
2023-02-19T18:51:12.171Z,2.53
2023-02-19T18:52:35.858Z,2.70
2023-02-19T18:54:01.633Z,2.15
2023-02-19T18:55:25.119Z,2.08
2023-02-19T18:56:48.760Z,1.80
2023-02-19T18:58:12.441Z,2.33
2023-02-19T18:59:35.975Z,2.30
2023-02-19T19:00:59.708Z,1.90
2023-02-19T19:02:24.514Z,2.05
2023-02-19T19:03:48.917Z,1.50
2023-02-19T19:05:13.264Z,2.03
2023-02-19T19:06:36.806Z,1.77
2023-02-19T19:08:01.774Z,1.90
2023-02-19T19:09:25.404Z,2.33
2023-02-19T19:10:48.823Z,2.08
2023-02-19T19:12:12.258Z,1.40
2023-02-19T19:13:35.648Z,1.88
2023-02-19T19:14:59.221Z,1.70
2023-02-19T19:16:25.009Z,2.30
2023-02-19T19:17:50.098Z,2.20
2023-02-19T19:19:13.959Z,1.80
2023-02-19T19:20:37.757Z,1.88
2023-02-19T19:22:01.137Z,2.10
2023-02-19T19:23:24.556Z,2.22
2023-02-19T19:24:47.939Z,1.42
2023-02-19T19:26:11.992Z,1.95
2023-02-19T19:27:35.576Z,1.67
2023-02-19T19:28:59.196Z,2.25
2023-02-19T19:30:23.182Z,1.83